createdAt,value
2023-06-02T00:01:37.541Z,45.07
2023-06-02T00:04:04.890Z,45.38
2023-06-02T00:06:34.438Z,45.09
2023-06-02T00:09:05.190Z,45.27
2023-06-02T00:11:35.661Z,45.40
2023-06-02T00:14:04.852Z,45.53
2023-06-02T00:16:43.032Z,45.32
2023-06-02T00:19:13.430Z,45.67
2023-06-02T00:21:41.967Z,45.62
2023-06-02T00:24:09.080Z,45.72
2023-06-02T00:26:36.148Z,45.61
2023-06-02T00:29:03.521Z,45.71
2023-06-02T00:31:30.825Z,45.29
2023-06-02T00:33:59.364Z,45.28
2023-06-02T00:36:26.394Z,45.34
2023-06-02T00:38:53.388Z,45.55
2023-06-02T00:41:20.565Z,45.78
2023-06-02T00:43:47.590Z,45.71
2023-06-02T00:46:14.565Z,45.79
2023-06-02T00:48:41.642Z,45.88
2023-06-02T00:51:10.974Z,46.19
2023-06-02T00:53:38.988Z,46.31
2023-06-02T00:56:07.047Z,46.44
2023-06-02T00:58:38.332Z,46.57
2023-06-02T01:01:09.477Z,46.25
2023-06-02T01:03:38.137Z,46.39
2023-06-02T01:06:08.784Z,46.08
2023-06-02T01:08:40.177Z,45.94
2023-06-02T01:11:08.315Z,46.31
2023-06-02T01:13:36.409Z,46.05
2023-06-02T01:16:03.747Z,46.33
2023-06-02T01:18:36.347Z,46.39
2023-06-02T01:21:06.530Z,46.29
2023-06-02T01:23:36.626Z,46.41
2023-06-02T01:26:10.097Z,45.93
2023-06-02T01:28:37.600Z,46.49
2023-06-02T01:31:14.649Z,46.42
2023-06-02T01:33:48.194Z,46.91
2023-06-02T01:36:18.266Z,46.96
2023-06-02T01:38:49.554Z,47.02
2023-06-02T01:41:21.302Z,47.19
2023-06-02T01:43:49.834Z,47.17
2023-06-02T01:46:17.656Z,47.31
2023-06-02T01:48:44.673Z,47.22
2023-06-02T01:51:11.626Z,47.36
2023-06-02T01:53:38.571Z,47.58
2023-06-02T01:56:06.676Z,47.46
2023-06-02T01:58:35.249Z,47.38
2023-06-02T02:01:02.275Z,47.49
2023-06-02T02:03:30.606Z,47.51
2023-06-02T02:05:57.950Z,47.42
2023-06-02T02:08:24.987Z,47.68
2023-06-02T02:10:52.123Z,47.42
2023-06-02T02:13:19.076Z,47.98
2023-06-02T02:15:47.421Z,48.15
2023-06-02T02:18:16.620Z,48.19
2023-06-02T02:20:43.569Z,48.00
2023-06-02T02:23:10.544Z,47.87
2023-06-02T02:25:37.478Z,48.05
2023-06-02T02:28:04.564Z,48.25
2023-06-02T02:30:31.594Z,47.99
2023-06-02T02:33:03.135Z,48.08
2023-06-02T02:35:30.095Z,48.16
2023-06-02T02:37:57.049Z,48.24
2023-06-02T02:40:24.225Z,48.23
2023-06-02T02:42:51.144Z,47.98
2023-06-02T02:45:18.240Z,48.18
2023-06-02T02:47:45.573Z,47.94
2023-06-02T02:50:13.810Z,47.82
2023-06-02T02:52:40.715Z,47.89
2023-06-02T02:55:08.525Z,47.90
2023-06-02T02:57:35.425Z,47.76
2023-06-02T03:00:03.016Z,48.11
2023-06-02T03:02:29.991Z,48.21
2023-06-02T03:04:57.618Z,48.28
2023-06-02T03:07:25.902Z,48.24
2023-06-02T03:09:53.163Z,48.00
2023-06-02T03:12:20.285Z,48.23
2023-06-02T03:14:47.187Z,48.22
2023-06-02T03:17:14.710Z,48.12
2023-06-02T03:19:41.805Z,48.27
2023-06-02T03:22:09.093Z,48.34
2023-06-02T03:24:37.421Z,48.18
2023-06-02T03:27:04.840Z,48.59
2023-06-02T03:29:31.821Z,48.47
2023-06-02T03:31:59.980Z,48.55
2023-06-02T03:34:27.031Z,48.87
2023-06-02T03:36:54.014Z,49.03
2023-06-02T03:39:20.972Z,48.93
2023-06-02T03:41:49.219Z,48.97
2023-06-02T03:44:16.212Z,49.05
2023-06-02T03:46:43.210Z,49.13
2023-06-02T03:49:10.175Z,49.05
2023-06-02T03:51:37.825Z,49.29
2023-06-02T03:54:04.943Z,48.98
2023-06-02T03:56:31.912Z,49.13
2023-06-02T03:59:00.288Z,48.96
2023-06-02T04:01:27.402Z,49.19
2023-06-02T04:03:54.713Z,49.40
2023-06-02T04:06:22.297Z,49.10
2023-06-02T04:08:49.247Z,48.99
2023-06-02T04:11:16.406Z,48.93
2023-06-02T04:13:43.343Z,48.90
2023-06-02T04:16:11.616Z,48.91
2023-06-02T04:18:40.190Z,48.88
2023-06-02T04:21:07.414Z,48.88
2023-06-02T04:23:34.366Z,49.06
2023-06-02T04:26:01.760Z,49.04
2023-06-02T04:28:30.073Z,48.92
2023-06-02T04:31:00.440Z,49.23
2023-06-02T04:33:29.274Z,49.29
2023-06-02T04:35:57.263Z,49.14
2023-06-02T04:38:24.489Z,49.16
2023-06-02T04:40:52.145Z,49.25
2023-06-02T04:43:19.911Z,49.35
2023-06-02T04:45:48.171Z,49.23
2023-06-02T04:48:15.333Z,49.31
2023-06-02T04:50:43.661Z,49.17
2023-06-02T04:53:10.668Z,49.31
2023-06-02T04:55:37.662Z,49.37
2023-06-02T04:58:05.391Z,49.38
2023-06-02T05:00:32.354Z,49.14
2023-06-02T05:02:59.348Z,49.21
2023-06-02T05:05:26.431Z,49.35
2023-06-02T05:07:54.831Z,49.42
2023-06-02T05:10:21.784Z,49.52
2023-06-02T05:12:49.135Z,49.53
2023-06-02T05:15:17.595Z,49.55
2023-06-02T05:17:44.891Z,49.52
2023-06-02T05:20:12.640Z,49.38
2023-06-02T05:22:40.083Z,49.48
2023-06-02T05:25:11.546Z,49.63
2023-06-02T05:27:39.131Z,49.51
2023-06-02T05:30:08.172Z,49.63
2023-06-02T05:32:35.315Z,49.51
2023-06-02T05:35:02.374Z,49.51
2023-06-02T05:37:29.356Z,49.67
2023-06-02T05:39:56.304Z,49.80
2023-06-02T05:42:26.225Z,49.91
2023-06-02T05:44:53.229Z,50.01
2023-06-02T05:47:20.318Z,49.94
2023-06-02T05:49:47.518Z,49.79
2023-06-02T05:52:14.550Z,49.77
2023-06-02T05:54:41.527Z,49.87
2023-06-02T05:57:08.537Z,49.36
2023-06-02T05:59:36.818Z,49.51
2023-06-02T06:02:04.223Z,49.13
2023-06-02T06:04:31.277Z,49.40
2023-06-02T06:06:59.717Z,49.17
2023-06-02T06:09:26.626Z,49.06
2023-06-02T06:11:53.701Z,48.82
2023-06-02T06:14:20.890Z,48.83
2023-06-02T06:16:49.189Z,48.75
2023-06-02T06:19:16.359Z,48.54
2023-06-02T06:21:43.351Z,48.59
2023-06-02T06:24:10.414Z,48.57
2023-06-02T06:26:37.466Z,48.50
2023-06-02T06:29:04.806Z,48.27
2023-06-02T06:31:33.453Z,48.24
2023-06-02T06:34:01.970Z,48.51
2023-06-02T06:36:29.051Z,48.56
2023-06-02T06:38:56.642Z,48.49
2023-06-02T06:41:24.012Z,47.93
2023-06-02T06:43:51.073Z,48.23
2023-06-02T06:46:18.039Z,47.82
2023-06-02T06:48:45.272Z,47.67
2023-06-02T06:51:13.720Z,47.12
2023-06-02T06:53:40.675Z,47.34
2023-06-02T06:56:08.525Z,46.94
2023-06-02T06:58:35.480Z,47.15
2023-06-02T07:01:03.108Z,46.97
2023-06-02T07:03:30.878Z,46.46
2023-06-02T07:05:58.146Z,46.13
2023-06-02T07:08:26.652Z,45.85
2023-06-02T07:10:53.622Z,45.39
2023-06-02T07:13:20.707Z,45.29
2023-06-02T07:15:47.892Z,45.16
2023-06-02T07:18:14.909Z,45.71
2023-06-02T07:20:41.829Z,45.13
2023-06-02T07:23:08.897Z,45.42
2023-06-02T07:25:37.849Z,45.09
2023-06-02T07:28:05.372Z,45.10
2023-06-02T07:30:36.124Z,45.08
2023-06-02T07:33:03.597Z,44.93
2023-06-02T07:35:30.750Z,44.58
2023-06-02T07:37:57.675Z,44.01
2023-06-02T07:40:24.921Z,44.05
2023-06-02T07:42:53.152Z,43.59
2023-06-02T07:45:20.110Z,43.86
2023-06-02T07:47:47.947Z,42.92
2023-06-02T07:50:15.366Z,42.27
2023-06-02T07:52:42.782Z,42.39
2023-06-02T07:55:10.249Z,41.98
2023-06-02T07:57:37.360Z,42.00
2023-06-02T08:00:18.959Z,41.40
2023-06-02T08:02:50.470Z,41.45
2023-06-02T08:05:18.681Z,41.60
2023-06-02T08:07:46.655Z,40.87
2023-06-02T08:10:13.767Z,40.25
2023-06-02T08:12:40.857Z,39.14
2023-06-02T08:15:09.348Z,37.11
2023-06-02T08:17:37.838Z,34.62
2023-06-02T08:20:07.777Z,31.88
2023-06-02T08:22:35.203Z,31.21
2023-06-02T08:25:04.001Z,28.35
2023-06-02T08:27:31.188Z,27.76
2023-06-02T08:29:58.549Z,27.76
2023-06-02T08:32:27.161Z,26.77
2023-06-02T08:35:02.389Z,27.46
2023-06-02T08:37:32.964Z,26.56
2023-06-02T08:40:00.412Z,26.36
2023-06-02T08:42:27.994Z,27.21
2023-06-02T08:44:55.091Z,28.49
2023-06-02T08:47:30.054Z,28.36
2023-06-02T08:50:03.133Z,28.75
2023-06-02T08:52:35.448Z,28.86
2023-06-02T08:55:04.940Z,28.77
2023-06-02T08:57:31.992Z,29.54
2023-06-02T08:59:59.121Z,29.63
2023-06-02T09:02:26.227Z,30.14
2023-06-02T09:04:53.337Z,30.27
2023-06-02T09:07:22.183Z,28.64
2023-06-02T09:09:52.109Z,27.36
2023-06-02T09:12:20.205Z,25.39
2023-06-02T09:14:49.075Z,25.00
2023-06-02T09:17:28.055Z,24.04
2023-06-02T09:19:58.799Z,24.15
2023-06-02T09:22:27.187Z,23.32
2023-06-02T09:24:55.337Z,24.37
2023-06-02T09:27:22.477Z,25.25
2023-06-02T09:29:50.750Z,25.54
2023-06-02T09:32:19.915Z,25.91
2023-06-02T09:34:47.083Z,25.82
2023-06-02T09:37:16.873Z,25.06
2023-06-02T09:39:47.400Z,24.95
2023-06-02T09:42:16.065Z,25.13
2023-06-02T09:45:04.644Z,25.88
2023-06-02T09:47:39.537Z,26.94
2023-06-02T09:50:08.291Z,27.66
2023-06-02T09:52:38.078Z,28.82
2023-06-02T09:55:09.182Z,29.79
2023-06-02T09:57:37.564Z,30.38
2023-06-02T10:00:07.979Z,31.17
2023-06-02T10:02:36.420Z,30.48
2023-06-02T10:05:05.605Z,29.47
2023-06-02T10:07:53.117Z,28.73
2023-06-02T10:10:39.284Z,29.41
2023-06-02T10:13:34.436Z,30.72
2023-06-02T10:16:25.055Z,31.68
2023-06-02T10:19:28.893Z,32.67
2023-06-02T10:22:13.024Z,33.27
2023-06-02T10:24:56.047Z,33.53
2023-06-02T10:27:31.285Z,34.60
2023-06-02T10:29:59.330Z,34.63
2023-06-02T10:32:30.007Z,34.64
2023-06-02T10:34:58.678Z,34.60
2023-06-02T10:37:25.904Z,34.65
2023-06-02T10:39:55.142Z,35.43
2023-06-02T10:42:25.035Z,35.50
2023-06-02T10:45:33.039Z,36.17
2023-06-02T10:47:59.992Z,36.29
2023-06-02T10:50:54.715Z,36.25
2023-06-02T10:53:21.709Z,36.57
2023-06-02T10:55:49.597Z,36.02
2023-06-02T10:58:16.795Z,35.92
2023-06-02T11:00:48.126Z,35.94
2023-06-02T11:03:34.526Z,36.01
2023-06-02T11:06:21.479Z,35.60
2023-06-02T11:08:53.198Z,35.46
2023-06-02T11:11:54.113Z,35.69
2023-06-02T11:14:22.190Z,35.89
2023-06-02T11:17:31.418Z,36.82
2023-06-02T11:19:59.077Z,36.60
2023-06-02T11:22:26.933Z,36.68
2023-06-02T11:24:54.538Z,37.01
2023-06-02T11:27:37.615Z,36.41
2023-06-02T11:30:11.457Z,36.77
2023-06-02T11:32:39.998Z,35.88
2023-06-02T11:35:10.366Z,35.61
2023-06-02T11:37:41.351Z,36.44
2023-06-02T11:40:14.446Z,36.09
2023-06-02T11:42:43.990Z,36.10
2023-06-02T11:45:23.115Z,35.40
2023-06-02T11:48:00.185Z,34.51
2023-06-02T11:50:27.476Z,34.54
2023-06-02T11:52:54.742Z,34.44
2023-06-02T11:55:26.828Z,34.49
2023-06-02T11:57:53.936Z,35.51
2023-06-02T12:00:21.566Z,35.47
2023-06-02T12:02:52.890Z,34.95
2023-06-02T12:05:32.684Z,35.04
2023-06-02T12:08:09.453Z,35.68
2023-06-02T12:10:37.264Z,35.92
2023-06-02T12:13:04.235Z,35.78
2023-06-02T12:15:37.243Z,35.86
2023-06-02T12:18:06.183Z,36.14
2023-06-02T12:20:42.545Z,36.55
2023-06-02T12:23:11.299Z,36.94
2023-06-02T12:25:39.207Z,36.83
2023-06-02T12:28:12.342Z,36.57
2023-06-02T12:30:40.356Z,36.33
2023-06-02T12:33:09.853Z,36.65
2023-06-02T12:35:37.887Z,36.94
2023-06-02T12:38:07.761Z,37.14
2023-06-02T12:40:35.578Z,36.72
2023-06-02T12:43:02.623Z,36.78
2023-06-02T12:45:29.845Z,36.50
2023-06-02T12:47:57.261Z,36.97
2023-06-02T12:50:27.318Z,36.23
2023-06-02T12:52:54.400Z,36.34
2023-06-02T12:55:22.871Z,36.03
2023-06-02T12:57:51.372Z,36.02
2023-06-02T13:00:18.910Z,35.71
2023-06-02T13:02:46.149Z,35.38
2023-06-02T13:05:13.636Z,35.01
2023-06-02T13:07:42.250Z,35.00
2023-06-02T13:10:11.971Z,34.77
2023-06-02T13:12:41.074Z,34.73
2023-06-02T13:15:09.501Z,35.19
2023-06-02T13:17:36.759Z,34.44
2023-06-02T13:20:04.452Z,34.89
2023-06-02T13:22:31.727Z,34.60
2023-06-02T13:24:59.708Z,34.45
2023-06-02T13:27:38.307Z,34.23
2023-06-02T13:30:14.218Z,33.91
2023-06-02T13:32:41.240Z,33.32
2023-06-02T13:35:09.980Z,32.73
2023-06-02T13:37:38.059Z,33.34
2023-06-02T13:40:07.366Z,32.68
2023-06-02T13:42:34.530Z,33.12
2023-06-02T13:45:01.467Z,32.34
2023-06-02T13:47:29.916Z,33.19
2023-06-02T13:49:56.902Z,33.31
2023-06-02T13:52:23.935Z,33.25
2023-06-02T13:54:50.974Z,32.40
2023-06-02T13:57:18.029Z,33.02
2023-06-02T13:59:45.122Z,32.76
2023-06-02T14:02:12.296Z,32.84
2023-06-02T14:04:42.802Z,32.54
2023-06-02T14:07:11.716Z,32.89
2023-06-02T14:09:38.866Z,32.64
2023-06-02T14:12:07.134Z,32.64
2023-06-02T14:14:34.213Z,33.51
2023-06-02T14:17:01.325Z,33.12
2023-06-02T14:19:28.344Z,33.08
2023-06-02T14:21:57.031Z,33.84
2023-06-02T14:24:24.136Z,33.27
2023-06-02T14:26:51.562Z,33.19
2023-06-02T14:29:18.614Z,33.00
2023-06-02T14:31:45.707Z,32.47
2023-06-02T14:34:12.827Z,32.35
2023-06-02T14:36:39.997Z,31.54
2023-06-02T14:39:08.378Z,31.16
2023-06-02T14:41:35.450Z,31.23
2023-06-02T14:44:03.481Z,31.76
2023-06-02T14:46:30.854Z,32.13
2023-06-02T14:48:58.065Z,32.42
2023-06-02T14:51:25.076Z,32.22
2023-06-02T14:53:52.359Z,32.63
2023-06-02T14:56:21.622Z,32.46
2023-06-02T14:58:53.619Z,32.55
2023-06-02T15:01:26.511Z,32.36
2023-06-02T15:03:53.644Z,32.58
2023-06-02T15:06:39.143Z,33.15
2023-06-02T15:09:06.341Z,32.43
2023-06-02T15:11:35.693Z,32.42
2023-06-02T15:14:02.709Z,32.95
2023-06-02T15:16:29.724Z,32.91
2023-06-02T15:18:58.664Z,32.49
2023-06-02T15:21:26.256Z,32.20
2023-06-02T15:23:53.853Z,32.19
2023-06-02T15:26:22.058Z,32.86
2023-06-02T15:28:50.392Z,32.44
2023-06-02T15:31:17.556Z,32.61
2023-06-02T15:33:46.159Z,33.21
2023-06-02T15:36:14.050Z,33.50
2023-06-02T15:38:41.278Z,32.61
2023-06-02T15:41:08.268Z,33.53
2023-06-02T15:43:35.207Z,33.32
2023-06-02T15:46:04.237Z,33.59
2023-06-02T15:48:31.484Z,33.84
2023-06-02T15:50:58.636Z,33.06
2023-06-02T15:53:25.666Z,32.90
2023-06-02T15:55:52.605Z,32.58
2023-06-02T15:58:19.678Z,33.06
2023-06-02T16:00:46.711Z,32.68
2023-06-02T16:03:15.108Z,31.60
2023-06-02T16:05:42.466Z,30.65
2023-06-02T16:08:09.390Z,29.38
2023-06-02T16:10:36.410Z,27.88
2023-06-02T16:13:03.497Z,27.18
2023-06-02T16:15:31.573Z,27.22
2023-06-02T16:18:02.035Z,27.63
2023-06-02T16:20:31.693Z,27.84
2023-06-02T16:22:58.749Z,27.99
2023-06-02T16:25:25.833Z,28.30
2023-06-02T16:27:53.034Z,28.36
2023-06-02T16:30:21.598Z,28.51
2023-06-02T16:32:50.906Z,28.72
2023-06-02T16:35:18.044Z,29.05
2023-06-02T16:37:46.890Z,28.50
2023-06-02T16:40:13.979Z,29.00
2023-06-02T16:42:44.995Z,29.58
2023-06-02T16:45:13.486Z,29.59
2023-06-02T16:47:40.531Z,29.71
2023-06-02T16:50:08.558Z,29.85
2023-06-02T16:52:35.550Z,29.67
2023-06-02T16:55:04.701Z,30.06
2023-06-02T16:57:31.607Z,30.49
2023-06-02T16:59:58.519Z,30.45
2023-06-02T17:02:25.662Z,30.24
2023-06-02T17:04:52.594Z,30.71
2023-06-02T17:07:19.578Z,30.20
2023-06-02T17:09:46.490Z,29.57
2023-06-02T17:12:14.841Z,28.58
2023-06-02T17:14:42.795Z,29.04
2023-06-02T17:17:10.514Z,28.81
2023-06-02T17:19:37.978Z,28.80
2023-06-02T17:22:07.256Z,28.92
2023-06-02T17:24:34.353Z,28.68
2023-06-02T17:27:02.062Z,28.97
2023-06-02T17:29:30.385Z,29.50
2023-06-02T17:31:57.537Z,29.45
2023-06-02T17:34:25.145Z,29.11
2023-06-02T17:36:54.732Z,29.42
2023-06-02T17:39:21.881Z,29.95
2023-06-02T17:41:48.993Z,29.40
2023-06-02T17:44:16.065Z,29.71
2023-06-02T17:46:44.371Z,29.46
2023-06-02T17:49:12.442Z,29.15
2023-06-02T17:51:39.456Z,28.96
2023-06-02T17:54:06.550Z,28.92
2023-06-02T17:56:33.466Z,29.19
2023-06-02T17:59:01.569Z,28.78
2023-06-02T18:01:28.663Z,28.86
2023-06-02T18:03:57.315Z,29.15
2023-06-02T18:06:24.318Z,28.33
2023-06-02T18:08:51.375Z,28.40
2023-06-02T18:11:18.306Z,28.40
2023-06-02T18:13:45.683Z,28.24
2023-06-02T18:16:13.497Z,28.43
2023-06-02T18:18:40.477Z,28.11
2023-06-02T18:21:08.814Z,28.78
2023-06-02T18:23:35.891Z,28.22
2023-06-02T18:26:02.956Z,28.08
2023-06-02T18:28:29.910Z,27.68
2023-06-02T18:30:56.908Z,27.81
2023-06-02T18:33:23.865Z,27.52
2023-06-02T18:35:51.091Z,26.93
2023-06-02T18:38:19.440Z,27.01
2023-06-02T18:40:46.672Z,27.33
2023-06-02T18:43:13.658Z,26.98
2023-06-02T18:45:40.621Z,26.92
2023-06-02T18:48:09.060Z,27.17
2023-06-02T18:50:36.212Z,26.98
2023-06-02T18:53:03.172Z,26.76
2023-06-02T18:55:31.450Z,26.73
2023-06-02T18:57:58.460Z,26.95
2023-06-02T19:00:25.450Z,26.53
2023-06-02T19:02:52.512Z,27.08
2023-06-02T19:05:19.615Z,26.72
2023-06-02T19:07:46.562Z,26.59
2023-06-02T19:10:13.513Z,26.36
2023-06-02T19:12:42.257Z,26.36
2023-06-02T19:15:09.630Z,26.91
2023-06-02T19:17:36.943Z,26.89
2023-06-02T19:20:07.190Z,26.76
2023-06-02T19:22:38.612Z,26.69
2023-06-02T19:25:07.532Z,26.75
2023-06-02T19:27:35.042Z,26.91
2023-06-02T19:30:04.046Z,26.25
2023-06-02T19:32:31.325Z,26.66
2023-06-02T19:34:58.344Z,26.42
2023-06-02T19:37:25.365Z,26.31
2023-06-02T19:39:52.293Z,26.44
2023-06-02T19:42:19.289Z,26.59
2023-06-02T19:44:48.449Z,26.92
2023-06-02T19:47:16.902Z,26.95
2023-06-02T19:49:44.100Z,27.07
2023-06-02T19:52:11.084Z,27.23
2023-06-02T19:54:38.288Z,27.32
2023-06-02T19:57:06.625Z,27.05
2023-06-02T19:59:34.954Z,27.06
2023-06-02T20:02:01.962Z,27.09
2023-06-02T20:04:30.407Z,26.72
2023-06-02T20:07:00.338Z,27.37
2023-06-02T20:09:27.405Z,27.02
2023-06-02T20:11:56.343Z,27.27
2023-06-02T20:14:23.493Z,26.96
2023-06-02T20:16:50.671Z,27.15
2023-06-02T20:19:18.110Z,27.29
2023-06-02T20:21:46.418Z,27.10
2023-06-02T20:24:13.340Z,26.57
2023-06-02T20:26:41.208Z,27.10
2023-06-02T20:29:08.257Z,26.80
2023-06-02T20:31:35.416Z,27.01
2023-06-02T20:34:02.924Z,27.03
2023-06-02T20:36:30.016Z,27.29
2023-06-02T20:38:58.596Z,26.73
2023-06-02T20:41:25.942Z,27.08
2023-06-02T20:43:52.944Z,27.25
2023-06-02T20:46:20.003Z,27.37
2023-06-02T20:48:46.959Z,27.39
2023-06-02T20:51:13.936Z,27.28
2023-06-02T20:53:40.994Z,27.60
2023-06-02T20:56:09.323Z,26.77
2023-06-02T20:58:36.380Z,26.96
2023-06-02T21:01:03.831Z,27.49
2023-06-02T21:03:30.977Z,27.53
2023-06-02T21:05:57.983Z,27.47
2023-06-02T21:08:24.959Z,27.46
2023-06-02T21:10:51.875Z,27.26
2023-06-02T21:13:20.167Z,27.33
2023-06-02T21:15:47.112Z,27.40
2023-06-02T21:18:14.185Z,27.44
2023-06-02T21:20:41.127Z,28.10
2023-06-02T21:23:08.150Z,27.92
2023-06-02T21:25:35.098Z,28.16
2023-06-02T21:28:02.001Z,28.13
2023-06-02T21:30:30.703Z,28.29
2023-06-02T21:32:57.800Z,27.93
2023-06-02T21:35:24.753Z,28.02
2023-06-02T21:37:51.766Z,28.05
2023-06-02T21:40:18.686Z,28.44
2023-06-02T21:42:46.014Z,28.10
2023-06-02T21:45:13.353Z,28.65
2023-06-02T21:47:41.976Z,28.54
2023-06-02T21:50:10.381Z,28.76
2023-06-02T21:52:37.398Z,28.91
2023-06-02T21:55:05.433Z,28.93
2023-06-02T21:57:32.511Z,29.01
2023-06-02T21:59:59.682Z,28.73
2023-06-02T22:02:28.558Z,28.96
2023-06-02T22:04:56.985Z,28.93
2023-06-02T22:07:23.894Z,29.32
2023-06-02T22:09:51.582Z,29.50
2023-06-02T22:12:18.539Z,29.57
2023-06-02T22:14:45.450Z,29.79
2023-06-02T22:17:12.392Z,29.54
2023-06-02T22:19:39.339Z,29.89
2023-06-02T22:22:08.114Z,29.95
2023-06-02T22:24:37.418Z,30.02
2023-06-02T22:27:05.048Z,29.86
2023-06-02T22:29:31.962Z,29.82
2023-06-02T22:31:58.952Z,30.32
2023-06-02T22:34:26.103Z,29.96
2023-06-02T22:36:53.141Z,30.24
2023-06-02T22:39:21.455Z,30.13
2023-06-02T22:41:49.770Z,30.38
2023-06-02T22:44:16.792Z,30.73
2023-06-02T22:46:43.754Z,30.90
2023-06-02T22:49:11.105Z,30.58
2023-06-02T22:51:39.396Z,30.71
2023-06-02T22:54:06.378Z,31.20
2023-06-02T22:56:34.628Z,30.89
2023-06-02T22:59:01.855Z,31.32
2023-06-02T23:01:29.330Z,31.32
2023-06-02T23:03:56.365Z,31.22
2023-06-02T23:06:23.891Z,31.41
2023-06-02T23:08:50.874Z,31.48
2023-06-02T23:11:18.498Z,31.57
2023-06-02T23:13:46.813Z,31.62
2023-06-02T23:16:13.826Z,31.44
2023-06-02T23:18:40.760Z,31.72
2023-06-02T23:21:08.026Z,32.13
2023-06-02T23:23:35.751Z,31.94
2023-06-02T23:26:03.179Z,32.09
2023-06-02T23:28:30.254Z,32.34
2023-06-02T23:30:58.537Z,32.32
2023-06-02T23:33:25.477Z,32.11
2023-06-02T23:35:52.444Z,32.50
2023-06-02T23:38:19.394Z,32.42
2023-06-02T23:40:46.365Z,32.29
2023-06-02T23:43:13.364Z,32.63
2023-06-02T23:45:40.526Z,32.46
2023-06-02T23:48:08.820Z,32.67
2023-06-02T23:50:35.779Z,32.77
2023-06-02T23:53:03.401Z,32.88
2023-06-02T23:55:32.055Z,32.70
2023-06-02T23:57:59.038Z,33.14
